sensor_id;sensor_type;location;lat;lon;timestamp;P1;durP1;ratioP1;P2;durP2;ratioP2
45784;SDS011;31489;51.404;5.474;2023-09-07T00:00:14;6.28;;;5.50;;
45784;SDS011;31489;51.404;5.474;2023-09-07T00:02:40;9.05;;;6.18;;
45784;SDS011;31489;51.404;5.474;2023-09-07T00:05:06;9.07;;;6.47;;
45784;SDS011;31489;51.404;5.474;2023-09-07T00:07:33;7.03;;;6.13;;
45784;SDS011;31489;51.404;5.474;2023-09-07T00:09:59;8.68;;;5.93;;
45784;SDS011;31489;51.404;5.474;2023-09-07T00:12:25;9.63;;;5.78;;
45784;SDS011;31489;51.404;5.474;2023-09-07T00:14:52;7.85;;;6.05;;
45784;SDS011;31489;51.404;5.474;2023-09-07T00:17:19;7.85;;;6.05;;
45784;SDS011;31489;51.404;5.474;2023-09-07T00:19:45;8.90;;;6.50;;
45784;SDS011;31489;51.404;5.474;2023-09-07T00:22:14;7.47;;;6.15;;
45784;SDS011;31489;51.404;5.474;2023-09-07T00:24:39;7.93;;;6.00;;
45784;SDS011;31489;51.404;5.474;2023-09-07T00:27:05;12.07;;;6.38;;
45784;SDS011;31489;51.404;5.474;2023-09-07T00:29:32;8.23;;;6.22;;
45784;SDS011;31489;51.404;5.474;2023-09-07T00:32:00;6.25;;;5.50;;
45784;SDS011;31489;51.404;5.474;2023-09-07T00:34:25;7.80;;;6.45;;
45784;SDS011;31489;51.404;5.474;2023-09-07T00:36:51;7.22;;;6.50;;
45784;SDS011;31489;51.404;5.474;2023-09-07T00:39:17;9.70;;;7.05;;
45784;SDS011;31489;51.404;5.474;2023-09-07T00:41:42;7.93;;;6.35;;
45784;SDS011;31489;51.404;5.474;2023-09-07T00:44:08;7.47;;;6.03;;
45784;SDS011;31489;51.404;5.474;2023-09-07T00:46:33;7.78;;;6.78;;
45784;SDS011;31489;51.404;5.474;2023-09-07T00:48:59;7.68;;;5.90;;
45784;SDS011;31489;51.404;5.474;2023-09-07T00:51:26;7.20;;;6.50;;
45784;SDS011;31489;51.404;5.474;2023-09-07T00:53:52;7.60;;;6.60;;
45784;SDS011;31489;51.404;5.474;2023-09-07T00:56:18;9.68;;;6.63;;
45784;SDS011;31489;51.404;5.474;2023-09-07T00:58:44;9.27;;;6.82;;
45784;SDS011;31489;51.404;5.474;2023-09-07T01:01:10;7.80;;;6.65;;
45784;SDS011;31489;51.404;5.474;2023-09-07T01:03:36;8.30;;;6.38;;
45784;SDS011;31489;51.404;5.474;2023-09-07T01:06:03;7.53;;;6.22;;
45784;SDS011;31489;51.404;5.474;2023-09-07T01:08:36;10.00;;;6.22;;
45784;SDS011;31489;51.404;5.474;2023-09-07T01:11:14;10.15;;;6.70;;
45784;SDS011;31489;51.404;5.474;2023-09-07T01:13:47;7.25;;;5.95;;
45784;SDS011;31489;51.404;5.474;2023-09-07T01:16:15;7.35;;;6.50;;
45784;SDS011;31489;51.404;5.474;2023-09-07T01:18:41;7.55;;;6.75;;
45784;SDS011;31489;51.404;5.474;2023-09-07T01:21:07;8.38;;;6.97;;
45784;SDS011;31489;51.404;5.474;2023-09-07T01:23:35;8.18;;;6.68;;
45784;SDS011;31489;51.404;5.474;2023-09-07T01:26:01;10.88;;;7.15;;
45784;SDS011;31489;51.404;5.474;2023-09-07T01:28:28;7.32;;;6.45;;
45784;SDS011;31489;51.404;5.474;2023-09-07T01:30:53;7.72;;;7.03;;
45784;SDS011;31489;51.404;5.474;2023-09-07T01:33:19;10.43;;;7.20;;
45784;SDS011;31489;51.404;5.474;2023-09-07T01:35:45;9.90;;;7.35;;
45784;SDS011;31489;51.404;5.474;2023-09-07T01:38:11;9.00;;;7.35;;
45784;SDS011;31489;51.404;5.474;2023-09-07T01:40:37;10.10;;;7.35;;
45784;SDS011;31489;51.404;5.474;2023-09-07T01:43:03;10.13;;;7.57;;
45784;SDS011;31489;51.404;5.474;2023-09-07T01:45:28;10.57;;;7.20;;
45784;SDS011;31489;51.404;5.474;2023-09-07T01:47:54;9.05;;;6.82;;
45784;SDS011;31489;51.404;5.474;2023-09-07T01:50:19;9.50;;;6.95;;
45784;SDS011;31489;51.404;5.474;2023-09-07T01:52:46;11.52;;;7.55;;
45784;SDS011;31489;51.404;5.474;2023-09-07T01:55:13;15.95;;;7.93;;
45784;SDS011;31489;51.404;5.474;2023-09-07T01:57:39;14.45;;;8.35;;
45784;SDS011;31489;51.404;5.474;2023-09-07T02:00:05;16.83;;;8.23;;
45784;SDS011;31489;51.404;5.474;2023-09-07T02:02:33;11.45;;;7.35;;
45784;SDS011;31489;51.404;5.474;2023-09-07T02:04:59;13.32;;;7.68;;
45784;SDS011;31489;51.404;5.474;2023-09-07T02:07:25;11.57;;;7.82;;
45784;SDS011;31489;51.404;5.474;2023-09-07T02:09:50;11.95;;;7.55;;
45784;SDS011;31489;51.404;5.474;2023-09-07T02:12:16;10.27;;;7.07;;
45784;SDS011;31489;51.404;5.474;2023-09-07T02:14:42;13.88;;;7.47;;
45784;SDS011;31489;51.404;5.474;2023-09-07T02:17:08;9.43;;;7.03;;
45784;SDS011;31489;51.404;5.474;2023-09-07T02:19:33;11.93;;;7.00;;
45784;SDS011;31489;51.404;5.474;2023-09-07T02:22:00;9.45;;;7.28;;
45784;SDS011;31489;51.404;5.474;2023-09-07T02:24:26;7.95;;;7.13;;
45784;SDS011;31489;51.404;5.474;2023-09-07T02:26:52;9.48;;;7.43;;
45784;SDS011;31489;51.404;5.474;2023-09-07T02:29:17;9.57;;;7.18;;
45784;SDS011;31489;51.404;5.474;2023-09-07T02:31:44;10.57;;;6.78;;
45784;SDS011;31489;51.404;5.474;2023-09-07T02:34:10;7.72;;;6.95;;
45784;SDS011;31489;51.404;5.474;2023-09-07T02:36:35;11.85;;;7.18;;
45784;SDS011;31489;51.404;5.474;2023-09-07T02:39:01;9.80;;;7.13;;
45784;SDS011;31489;51.404;5.474;2023-09-07T02:41:31;9.68;;;6.95;;
45784;SDS011;31489;51.404;5.474;2023-09-07T02:43:56;7.47;;;6.65;;
45784;SDS011;31489;51.404;5.474;2023-09-07T02:46:22;8.63;;;7.22;;
45784;SDS011;31489;51.404;5.474;2023-09-07T02:48:47;7.50;;;6.47;;
45784;SDS011;31489;51.404;5.474;2023-09-07T02:51:13;7.80;;;6.95;;
45784;SDS011;31489;51.404;5.474;2023-09-07T02:53:39;8.85;;;6.90;;
45784;SDS011;31489;51.404;5.474;2023-09-07T02:56:04;8.43;;;6.30;;
45784;SDS011;31489;51.404;5.474;2023-09-07T02:58:30;9.32;;;7.13;;
45784;SDS011;31489;51.404;5.474;2023-09-07T03:00:56;8.65;;;7.05;;
45784;SDS011;31489;51.404;5.474;2023-09-07T03:03:22;7.53;;;6.78;;
45784;SDS011;31489;51.404;5.474;2023-09-07T03:05:47;9.10;;;7.03;;
45784;SDS011;31489;51.404;5.474;2023-09-07T03:08:13;10.18;;;7.05;;
45784;SDS011;31489;51.404;5.474;2023-09-07T03:10:39;7.93;;;7.10;;
45784;SDS011;31489;51.404;5.474;2023-09-07T03:13:08;7.30;;;6.43;;
45784;SDS011;31489;51.404;5.474;2023-09-07T03:15:33;8.25;;;7.07;;
45784;SDS011;31489;51.404;5.474;2023-09-07T03:18:03;9.18;;;7.45;;
45784;SDS011;31489;51.404;5.474;2023-09-07T03:20:29;11.32;;;7.80;;
45784;SDS011;31489;51.404;5.474;2023-09-07T03:22:54;10.38;;;7.65;;
45784;SDS011;31489;51.404;5.474;2023-09-07T03:25:23;10.07;;;7.65;;
45784;SDS011;31489;51.404;5.474;2023-09-07T03:27:49;8.63;;;6.22;;
45784;SDS011;31489;51.404;5.474;2023-09-07T03:30:14;8.75;;;7.00;;
45784;SDS011;31489;51.404;5.474;2023-09-07T03:32:40;7.72;;;6.70;;
45784;SDS011;31489;51.404;5.474;2023-09-07T03:35:06;7.40;;;6.68;;
45784;SDS011;31489;51.404;5.474;2023-09-07T03:37:34;9.10;;;7.40;;
45784;SDS011;31489;51.404;5.474;2023-09-07T03:40:00;7.90;;;6.82;;
45784;SDS011;31489;51.404;5.474;2023-09-07T03:42:29;10.65;;;7.22;;
45784;SDS011;31489;51.404;5.474;2023-09-07T03:44:55;7.35;;;6.63;;
45784;SDS011;31489;51.404;5.474;2023-09-07T03:47:21;9.15;;;6.38;;
45784;SDS011;31489;51.404;5.474;2023-09-07T03:49:46;9.20;;;6.43;;
45784;SDS011;31489;51.404;5.474;2023-09-07T03:52:12;8.52;;;7.53;;
45784;SDS011;31489;51.404;5.474;2023-09-07T03:54:40;7.72;;;6.93;;
45784;SDS011;31489;51.404;5.474;2023-09-07T03:57:08;8.25;;;6.53;;
45784;SDS011;31489;51.404;5.474;2023-09-07T03:59:34;8.57;;;7.07;;
45784;SDS011;31489;51.404;5.474;2023-09-07T04:01:59;8.05;;;7.25;;
45784;SDS011;31489;51.404;5.474;2023-09-07T04:04:25;8.98;;;6.63;;
45784;SDS011;31489;51.404;5.474;2023-09-07T04:06:50;8.20;;;7.30;;
45784;SDS011;31489;51.404;5.474;2023-09-07T04:09:16;7.40;;;6.65;;
45784;SDS011;31489;51.404;5.474;2023-09-07T04:11:44;7.40;;;6.38;;
45784;SDS011;31489;51.404;5.474;2023-09-07T04:14:10;9.60;;;7.28;;
45784;SDS011;31489;51.404;5.474;2023-09-07T04:16:35;10.05;;;7.30;;
45784;SDS011;31489;51.404;5.474;2023-09-07T04:19:01;8.35;;;7.03;;
45784;SDS011;31489;51.404;5.474;2023-09-07T04:21:27;8.40;;;6.50;;
45784;SDS011;31489;51.404;5.474;2023-09-07T04:23:52;8.65;;;6.85;;
45784;SDS011;31489;51.404;5.474;2023-09-07T04:26:18;9.85;;;7.38;;
45784;SDS011;31489;51.404;5.474;2023-09-07T04:28:44;7.82;;;6.72;;
45784;SDS011;31489;51.404;5.474;2023-09-07T04:31:10;8.18;;;6.38;;
45784;SDS011;31489;51.404;5.474;2023-09-07T04:33:36;7.03;;;6.07;;
45784;SDS011;31489;51.404;5.474;2023-09-07T04:36:10;7.85;;;6.63;;
45784;SDS011;31489;51.404;5.474;2023-09-07T04:38:39;8.32;;;6.78;;
45784;SDS011;31489;51.404;5.474;2023-09-07T04:41:09;7.55;;;6.70;;
45784;SDS011;31489;51.404;5.474;2023-09-07T04:43:36;9.82;;;6.80;;
45784;SDS011;31489;51.404;5.474;2023-09-07T04:46:05;8.75;;;7.05;;
45784;SDS011;31489;51.404;5.474;2023-09-07T04:48:31;7.80;;;6.57;;
45784;SDS011;31489;51.404;5.474;2023-09-07T04:51:02;8.45;;;6.95;;
45784;SDS011;31489;51.404;5.474;2023-09-07T04:53:30;8.55;;;6.57;;
45784;SDS011;31489;51.404;5.474;2023-09-07T04:55:57;8.65;;;6.88;;
45784;SDS011;31489;51.404;5.474;2023-09-07T04:58:23;9.80;;;7.35;;
45784;SDS011;31489;51.404;5.474;2023-09-07T05:00:49;9.25;;;7.22;;
45784;SDS011;31489;51.404;5.474;2023-09-07T05:03:15;7.53;;;6.25;;
45784;SDS011;31489;51.404;5.474;2023-09-07T05:05:42;7.45;;;6.72;;
45784;SDS011;31489;51.404;5.474;2023-09-07T05:08:16;8.40;;;6.13;;
45784;SDS011;31489;51.404;5.474;2023-09-07T05:10:42;11.65;;;7.03;;
45784;SDS011;31489;51.404;5.474;2023-09-07T05:13:07;8.48;;;6.57;;
45784;SDS011;31489;51.404;5.474;2023-09-07T05:15:33;7.20;;;6.40;;
45784;SDS011;31489;51.404;5.474;2023-09-07T05:17:59;8.05;;;6.75;;
45784;SDS011;31489;51.404;5.474;2023-09-07T05:20:24;8.52;;;7.38;;
45784;SDS011;31489;51.404;5.474;2023-09-07T05:22:51;7.90;;;6.13;;
45784;SDS011;31489;51.404;5.474;2023-09-07T05:25:18;8.27;;;5.93;;
45784;SDS011;31489;51.404;5.474;2023-09-07T05:27:45;7.72;;;6.75;;
45784;SDS011;31489;51.404;5.474;2023-09-07T05:30:11;8.27;;;6.32;;
45784;SDS011;31489;51.404;5.474;2023-09-07T05:32:36;9.85;;;7.30;;
45784;SDS011;31489;51.404;5.474;2023-09-07T05:35:02;9.25;;;7.10;;
45784;SDS011;31489;51.404;5.474;2023-09-07T05:37:29;7.97;;;6.35;;
45784;SDS011;31489;51.404;5.474;2023-09-07T05:39:55;11.80;;;7.13;;
45784;SDS011;31489;51.404;5.474;2023-09-07T05:42:20;7.43;;;6.43;;
45784;SDS011;31489;51.404;5.474;2023-09-07T05:44:46;11.30;;;7.45;;
45784;SDS011;31489;51.404;5.474;2023-09-07T05:47:12;12.50;;;7.47;;
45784;SDS011;31489;51.404;5.474;2023-09-07T05:49:37;13.10;;;7.15;;
45784;SDS011;31489;51.404;5.474;2023-09-07T05:52:03;7.30;;;6.40;;
45784;SDS011;31489;51.404;5.474;2023-09-07T05:54:29;9.27;;;6.60;;
45784;SDS011;31489;51.404;5.474;2023-09-07T05:56:54;11.65;;;7.47;;
45784;SDS011;31489;51.404;5.474;2023-09-07T05:59:20;9.60;;;7.30;;
45784;SDS011;31489;51.404;5.474;2023-09-07T06:01:46;9.98;;;7.15;;
45784;SDS011;31489;51.404;5.474;2023-09-07T06:04:11;7.53;;;6.25;;
45784;SDS011;31489;51.404;5.474;2023-09-07T06:06:37;7.90;;;6.78;;
45784;SDS011;31489;51.404;5.474;2023-09-07T06:09:03;9.40;;;7.03;;
45784;SDS011;31489;51.404;5.474;2023-09-07T06:11:29;8.68;;;7.00;;
45784;SDS011;31489;51.404;5.474;2023-09-07T06:13:56;7.32;;;6.63;;
45784;SDS011;31489;51.404;5.474;2023-09-07T06:16:23;8.57;;;7.28;;
45784;SDS011;31489;51.404;5.474;2023-09-07T06:18:48;8.20;;;7.40;;
45784;SDS011;31489;51.404;5.474;2023-09-07T06:21:14;9.50;;;6.90;;
45784;SDS011;31489;51.404;5.474;2023-09-07T06:23:40;9.13;;;7.40;;
45784;SDS011;31489;51.404;5.474;2023-09-07T06:26:05;8.00;;;7.20;;
45784;SDS011;31489;51.404;5.474;2023-09-07T06:28:31;8.32;;;7.15;;
45784;SDS011;31489;51.404;5.474;2023-09-07T06:30:57;9.05;;;7.20;;
45784;SDS011;31489;51.404;5.474;2023-09-07T06:33:25;9.50;;;7.18;;
45784;SDS011;31489;51.404;5.474;2023-09-07T06:35:51;7.93;;;7.13;;
45784;SDS011;31489;51.404;5.474;2023-09-07T06:38:16;9.38;;;7.15;;
45784;SDS011;31489;51.404;5.474;2023-09-07T06:40:47;8.00;;;7.07;;
45784;SDS011;31489;51.404;5.474;2023-09-07T06:43:13;8.75;;;6.70;;
45784;SDS011;31489;51.404;5.474;2023-09-07T06:45:42;6.68;;;6.07;;
45784;SDS011;31489;51.404;5.474;2023-09-07T06:48:08;8.27;;;6.80;;
45784;SDS011;31489;51.404;5.474;2023-09-07T06:50:33;8.90;;;6.82;;
45784;SDS011;31489;51.404;5.474;2023-09-07T06:52:59;8.25;;;7.32;;
45784;SDS011;31489;51.404;5.474;2023-09-07T06:55:25;7.65;;;6.82;;
45784;SDS011;31489;51.404;5.474;2023-09-07T06:57:51;9.57;;;6.57;;
45784;SDS011;31489;51.404;5.474;2023-09-07T07:00:18;9.05;;;7.13;;
45784;SDS011;31489;51.404;5.474;2023-09-07T07:02:44;6.95;;;6.25;;
45784;SDS011;31489;51.404;5.474;2023-09-07T07:05:10;7.60;;;6.78;;
45784;SDS011;31489;51.404;5.474;2023-09-07T07:07:35;7.78;;;5.80;;
45784;SDS011;31489;51.404;5.474;2023-09-07T07:10:01;6.65;;;5.88;;
45784;SDS011;31489;51.404;5.474;2023-09-07T07:12:28;6.32;;;5.47;;
45784;SDS011;31489;51.404;5.474;2023-09-07T07:14:53;8.57;;;5.72;;
45784;SDS011;31489;51.404;5.474;2023-09-07T07:17:20;6.10;;;5.50;;
45784;SDS011;31489;51.404;5.474;2023-09-07T07:19:46;6.45;;;5.68;;
45784;SDS011;31489;51.404;5.474;2023-09-07T07:22:12;7.13;;;5.20;;
45784;SDS011;31489;51.404;5.474;2023-09-07T07:24:38;6.53;;;5.68;;
45784;SDS011;31489;51.404;5.474;2023-09-07T07:27:05;5.38;;;4.88;;
45784;SDS011;31489;51.404;5.474;2023-09-07T07:29:31;9.93;;;5.15;;
45784;SDS011;31489;51.404;5.474;2023-09-07T07:31:56;6.40;;;5.13;;
45784;SDS011;31489;51.404;5.474;2023-09-07T07:34:24;8.43;;;5.15;;
45784;SDS011;31489;51.404;5.474;2023-09-07T07:36:50;5.68;;;4.90;;
45784;SDS011;31489;51.404;5.474;2023-09-07T07:39:15;7.68;;;5.25;;
45784;SDS011;31489;51.404;5.474;2023-09-07T07:41:42;7.50;;;5.72;;
45784;SDS011;31489;51.404;5.474;2023-09-07T07:44:07;8.48;;;6.00;;
45784;SDS011;31489;51.404;5.474;2023-09-07T07:46:34;6.65;;;6.00;;
45784;SDS011;31489;51.404;5.474;2023-09-07T07:48:59;8.10;;;6.15;;
45784;SDS011;31489;51.404;5.474;2023-09-07T07:51:25;7.85;;;5.25;;
45784;SDS011;31489;51.404;5.474;2023-09-07T07:53:51;7.88;;;5.80;;
45784;SDS011;31489;51.404;5.474;2023-09-07T07:56:20;8.23;;;4.90;;
45784;SDS011;31489;51.404;5.474;2023-09-07T07:58:45;5.78;;;4.63;;
45784;SDS011;31489;51.404;5.474;2023-09-07T08:01:18;8.73;;;5.63;;
45784;SDS011;31489;51.404;5.474;2023-09-07T08:03:48;7.05;;;4.82;;
45784;SDS011;31489;51.404;5.474;2023-09-07T08:06:14;8.73;;;5.45;;
45784;SDS011;31489;51.404;5.474;2023-09-07T08:08:39;6.85;;;5.40;;
45784;SDS011;31489;51.404;5.474;2023-09-07T08:11:06;5.85;;;5.35;;
45784;SDS011;31489;51.404;5.474;2023-09-07T08:13:33;5.55;;;4.95;;
45784;SDS011;31489;51.404;5.474;2023-09-07T08:16:02;9.70;;;5.07;;
45784;SDS011;31489;51.404;5.474;2023-09-07T08:18:28;6.95;;;4.80;;
45784;SDS011;31489;51.404;5.474;2023-09-07T08:20:56;8.20;;;5.72;;
45784;SDS011;31489;51.404;5.474;2023-09-07T08:23:22;5.32;;;4.80;;
45784;SDS011;31489;51.404;5.474;2023-09-07T08:25:48;5.80;;;4.50;;
45784;SDS011;31489;51.404;5.474;2023-09-07T08:28:16;7.10;;;4.35;;
45784;SDS011;31489;51.404;5.474;2023-09-07T08:30:43;6.68;;;4.88;;
45784;SDS011;31489;51.404;5.474;2023-09-07T08:33:09;7.20;;;4.60;;
45784;SDS011;31489;51.404;5.474;2023-09-07T08:35:35;7.18;;;4.75;;
45784;SDS011;31489;51.404;5.474;2023-09-07T08:38:02;5.35;;;4.15;;
45784;SDS011;31489;51.404;5.474;2023-09-07T08:40:33;5.93;;;4.10;;
45784;SDS011;31489;51.404;5.474;2023-09-07T08:43:01;5.85;;;4.00;;
45784;SDS011;31489;51.404;5.474;2023-09-07T08:45:29;5.18;;;3.92;;
45784;SDS011;31489;51.404;5.474;2023-09-07T08:48:01;4.75;;;3.88;;
45784;SDS011;31489;51.404;5.474;2023-09-07T08:50:28;6.35;;;4.45;;
45784;SDS011;31489;51.404;5.474;2023-09-07T08:52:57;9.32;;;4.10;;
45784;SDS011;31489;51.404;5.474;2023-09-07T08:55:24;5.72;;;4.20;;
45784;SDS011;31489;51.404;5.474;2023-09-07T08:57:50;6.47;;;4.10;;
45784;SDS011;31489;51.404;5.474;2023-09-07T09:00:16;6.57;;;4.40;;
45784;SDS011;31489;51.404;5.474;2023-09-07T09:02:42;5.22;;;4.00;;
45784;SDS011;31489;51.404;5.474;2023-09-07T09:05:11;7.07;;;4.03;;
45784;SDS011;31489;51.404;5.474;2023-09-07T09:07:39;6.38;;;3.80;;
45784;SDS011;31489;51.404;5.474;2023-09-07T09:10:08;5.45;;;3.63;;
45784;SDS011;31489;51.404;5.474;2023-09-07T09:12:34;5.35;;;3.83;;
45784;SDS011;31489;51.404;5.474;2023-09-07T09:15:00;5.30;;;3.47;;
45784;SDS011;31489;51.404;5.474;2023-09-07T09:17:28;9.73;;;3.38;;
45784;SDS011;31489;51.404;5.474;2023-09-07T09:19:54;6.07;;;3.70;;
45784;SDS011;31489;51.404;5.474;2023-09-07T09:22:22;4.63;;;3.22;;
45784;SDS011;31489;51.404;5.474;2023-09-07T09:24:49;6.40;;;3.35;;
45784;SDS011;31489;51.404;5.474;2023-09-07T09:27:15;6.65;;;3.30;;
45784;SDS011;31489;51.404;5.474;2023-09-07T09:29:41;5.43;;;3.28;;
45784;SDS011;31489;51.404;5.474;2023-09-07T09:32:07;11.90;;;3.33;;
45784;SDS011;31489;51.404;5.474;2023-09-07T09:34:36;5.05;;;3.40;;
45784;SDS011;31489;51.404;5.474;2023-09-07T09:37:03;7.35;;;3.35;;
45784;SDS011;31489;51.404;5.474;2023-09-07T09:39:29;5.47;;;3.13;;
45784;SDS011;31489;51.404;5.474;2023-09-07T09:41:55;6.05;;;3.30;;
45784;SDS011;31489;51.404;5.474;2023-09-07T09:44:22;4.88;;;3.42;;
45784;SDS011;31489;51.404;5.474;2023-09-07T09:46:52;4.72;;;2.90;;
45784;SDS011;31489;51.404;5.474;2023-09-07T09:49:20;5.15;;;3.38;;
45784;SDS011;31489;51.404;5.474;2023-09-07T09:51:51;4.15;;;3.10;;
45784;SDS011;31489;51.404;5.474;2023-09-07T09:54:20;4.50;;;3.05;;
45784;SDS011;31489;51.404;5.474;2023-09-07T09:56:47;6.38;;;3.15;;
45784;SDS011;31489;51.404;5.474;2023-09-07T09:59:13;4.03;;;2.90;;
45784;SDS011;31489;51.404;5.474;2023-09-07T10:01:45;3.83;;;2.88;;
45784;SDS011;31489;51.404;5.474;2023-09-07T10:04:12;5.70;;;3.10;;
45784;SDS011;31489;51.404;5.474;2023-09-07T10:06:54;3.75;;;2.90;;
45784;SDS011;31489;51.404;5.474;2023-09-07T10:09:21;2.88;;;2.42;;
45784;SDS011;31489;51.404;5.474;2023-09-07T10:11:51;5.00;;;3.33;;
45784;SDS011;31489;51.404;5.474;2023-09-07T10:14:21;7.45;;;3.05;;
45784;SDS011;31489;51.404;5.474;2023-09-07T10:16:51;5.53;;;2.90;;
45784;SDS011;31489;51.404;5.474;2023-09-07T10:19:21;3.88;;;2.88;;
45784;SDS011;31489;51.404;5.474;2023-09-07T10:21:52;3.47;;;2.78;;
45784;SDS011;31489;51.404;5.474;2023-09-07T10:27:00;4.32;;;3.17;;
45784;SDS011;31489;51.404;5.474;2023-09-07T10:32:40;3.45;;;2.50;;
45784;SDS011;31489;51.404;5.474;2023-09-07T10:35:13;2.47;;;2.28;;
45784;SDS011;31489;51.404;5.474;2023-09-07T10:37:40;4.15;;;2.35;;
45784;SDS011;31489;51.404;5.474;2023-09-07T10:40:06;3.75;;;2.22;;
45784;SDS011;31489;51.404;5.474;2023-09-07T10:42:39;2.53;;;2.20;;
45784;SDS011;31489;51.404;5.474;2023-09-07T10:45:09;4.50;;;2.35;;
45784;SDS011;31489;51.404;5.474;2023-09-07T10:47:39;2.00;;;1.88;;
45784;SDS011;31489;51.404;5.474;2023-09-07T10:50:06;2.50;;;2.17;;
45784;SDS011;31489;51.404;5.474;2023-09-07T10:52:33;4.68;;;2.00;;
45784;SDS011;31489;51.404;5.474;2023-09-07T10:54:59;2.40;;;2.20;;
45784;SDS011;31489;51.404;5.474;2023-09-07T10:57:24;3.88;;;2.47;;
45784;SDS011;31489;51.404;5.474;2023-09-07T10:59:50;4.40;;;1.80;;
45784;SDS011;31489;51.404;5.474;2023-09-07T11:02:20;2.55;;;2.20;;
45784;SDS011;31489;51.404;5.474;2023-09-07T11:04:45;3.70;;;2.20;;
45784;SDS011;31489;51.404;5.474;2023-09-07T11:07:11;5.45;;;2.00;;
45784;SDS011;31489;51.404;5.474;2023-09-07T11:09:41;4.35;;;2.40;;
45784;SDS011;31489;51.404;5.474;2023-09-07T11:12:07;5.95;;;2.28;;
45784;SDS011;31489;51.404;5.474;2023-09-07T11:14:33;5.18;;;1.98;;
45784;SDS011;31489;51.404;5.474;2023-09-07T11:17:02;3.17;;;2.10;;
45784;SDS011;31489;51.404;5.474;2023-09-07T11:19:31;4.32;;;2.38;;
45784;SDS011;31489;51.404;5.474;2023-09-07T11:21:58;4.28;;;2.10;;
45784;SDS011;31489;51.404;5.474;2023-09-07T11:24:25;3.70;;;2.10;;
45784;SDS011;31489;51.404;5.474;2023-09-07T11:26:51;2.50;;;2.30;;
45784;SDS011;31489;51.404;5.474;2023-09-07T11:29:17;2.30;;;2.10;;
45784;SDS011;31489;51.404;5.474;2023-09-07T11:31:44;3.58;;;2.28;;
45784;SDS011;31489;51.404;5.474;2023-09-07T11:34:10;3.70;;;2.10;;
45784;SDS011;31489;51.404;5.474;2023-09-07T11:36:37;5.75;;;2.20;;
45784;SDS011;31489;51.404;5.474;2023-09-07T11:39:06;2.40;;;1.92;;
45784;SDS011;31489;51.404;5.474;2023-09-07T11:41:37;2.28;;;2.05;;
45784;SDS011;31489;51.404;5.474;2023-09-07T11:44:07;2.72;;;2.13;;
45784;SDS011;31489;51.404;5.474;2023-09-07T11:46:33;3.05;;;2.10;;
45784;SDS011;31489;51.404;5.474;2023-09-07T11:48:59;2.40;;;2.10;;
45784;SDS011;31489;51.404;5.474;2023-09-07T11:51:25;2.17;;;1.98;;
45784;SDS011;31489;51.404;5.474;2023-09-07T11:53:51;8.40;;;2.30;;
45784;SDS011;31489;51.404;5.474;2023-09-07T11:56:16;3.15;;;2.10;;
45784;SDS011;31489;51.404;5.474;2023-09-07T11:58:42;2.75;;;2.13;;
45784;SDS011;31489;51.404;5.474;2023-09-07T12:01:09;2.50;;;2.08;;
45784;SDS011;31489;51.404;5.474;2023-09-07T12:03:35;3.33;;;2.13;;
45784;SDS011;31489;51.404;5.474;2023-09-07T12:06:00;2.42;;;1.83;;
45784;SDS011;31489;51.404;5.474;2023-09-07T12:08:26;4.32;;;2.38;;
45784;SDS011;31489;51.404;5.474;2023-09-07T12:10:52;3.97;;;2.08;;
45784;SDS011;31489;51.404;5.474;2023-09-07T12:13:18;2.20;;;2.00;;
45784;SDS011;31489;51.404;5.474;2023-09-07T12:15:43;2.55;;;2.03;;
45784;SDS011;31489;51.404;5.474;2023-09-07T12:18:09;2.60;;;1.77;;
45784;SDS011;31489;51.404;5.474;2023-09-07T12:20:37;3.17;;;2.10;;
45784;SDS011;31489;51.404;5.474;2023-09-07T12:23:03;2.40;;;1.92;;
45784;SDS011;31489;51.404;5.474;2023-09-07T12:25:29;5.20;;;2.30;;
45784;SDS011;31489;51.404;5.474;2023-09-07T12:27:55;7.35;;;2.20;;
45784;SDS011;31489;51.404;5.474;2023-09-07T12:30:21;3.30;;;1.92;;
45784;SDS011;31489;51.404;5.474;2023-09-07T12:32:48;4.47;;;2.45;;
45784;SDS011;31489;51.404;5.474;2023-09-07T12:35:15;2.45;;;2.17;;
45784;SDS011;31489;51.404;5.474;2023-09-07T12:37:41;2.47;;;2.10;;
45784;SDS011;31489;51.404;5.474;2023-09-07T12:40:07;2.25;;;1.95;;
45784;SDS011;31489;51.404;5.474;2023-09-07T12:42:40;2.63;;;2.38;;
45784;SDS011;31489;51.404;5.474;2023-09-07T12:45:10;3.65;;;2.20;;
45784;SDS011;31489;51.404;5.474;2023-09-07T12:47:37;3.78;;;2.47;;
45784;SDS011;31489;51.404;5.474;2023-09-07T12:50:03;4.10;;;2.53;;
45784;SDS011;31489;51.404;5.474;2023-09-07T12:52:30;2.97;;;2.13;;
45784;SDS011;31489;51.404;5.474;2023-09-07T12:54:56;3.03;;;2.40;;
45784;SDS011;31489;51.404;5.474;2023-09-07T12:57:21;5.28;;;2.00;;
45784;SDS011;31489;51.404;5.474;2023-09-07T12:59:47;3.40;;;2.40;;
45784;SDS011;31489;51.404;5.474;2023-09-07T13:02:14;4.20;;;2.40;;
45784;SDS011;31489;51.404;5.474;2023-09-07T13:04:40;4.07;;;2.50;;
45784;SDS011;31489;51.404;5.474;2023-09-07T13:07:05;4.13;;;2.05;;
45784;SDS011;31489;51.404;5.474;2023-09-07T13:09:31;3.10;;;2.00;;
45784;SDS011;31489;51.404;5.474;2023-09-07T13:11:57;2.85;;;2.08;;
45784;SDS011;31489;51.404;5.474;2023-09-07T13:14:40;4.38;;;2.30;;
45784;SDS011;31489;51.404;5.474;2023-09-07T13:17:11;2.78;;;2.17;;
45784;SDS011;31489;51.404;5.474;2023-09-07T13:19:40;4.18;;;2.60;;
45784;SDS011;31489;51.404;5.474;2023-09-07T13:22:06;4.50;;;2.47;;
45784;SDS011;31489;51.404;5.474;2023-09-07T13:24:35;5.05;;;2.38;;
45784;SDS011;31489;51.404;5.474;2023-09-07T13:27:01;3.10;;;2.20;;
45784;SDS011;31489;51.404;5.474;2023-09-07T13:29:28;4.90;;;2.25;;
45784;SDS011;31489;51.404;5.474;2023-09-07T13:31:54;2.75;;;2.20;;
45784;SDS011;31489;51.404;5.474;2023-09-07T13:34:20;2.40;;;2.17;;
45784;SDS011;31489;51.404;5.474;2023-09-07T13:36:47;9.45;;;2.38;;
45784;SDS011;31489;51.404;5.474;2023-09-07T13:39:12;4.22;;;2.28;;
45784;SDS011;31489;51.404;5.474;2023-09-07T13:41:38;2.47;;;1.92;;
45784;SDS011;31489;51.404;5.474;2023-09-07T13:44:04;2.33;;;2.13;;
45784;SDS011;31489;51.404;5.474;2023-09-07T13:46:30;3.83;;;2.25;;
45784;SDS011;31489;51.404;5.474;2023-09-07T13:48:55;2.63;;;2.40;;
45784;SDS011;31489;51.404;5.474;2023-09-07T13:51:21;6.47;;;2.30;;
45784;SDS011;31489;51.404;5.474;2023-09-07T13:53:47;4.45;;;2.40;;
45784;SDS011;31489;51.404;5.474;2023-09-07T13:56:16;2.70;;;2.50;;
45784;SDS011;31489;51.404;5.474;2023-09-07T13:58:42;2.95;;;2.25;;
45784;SDS011;31489;51.404;5.474;2023-09-07T14:01:08;2.40;;;2.20;;
45784;SDS011;31489;51.404;5.474;2023-09-07T14:03:33;2.22;;;2.03;;
45784;SDS011;31489;51.404;5.474;2023-09-07T14:05:59;3.95;;;2.17;;
45784;SDS011;31489;51.404;5.474;2023-09-07T14:08:25;8.45;;;2.60;;
45784;SDS011;31489;51.404;5.474;2023-09-07T14:10:51;6.25;;;2.50;;
45784;SDS011;31489;51.404;5.474;2023-09-07T14:13:20;4.32;;;2.30;;
45784;SDS011;31489;51.404;5.474;2023-09-07T14:15:45;7.07;;;2.55;;
45784;SDS011;31489;51.404;5.474;2023-09-07T14:18:11;4.75;;;2.60;;
45784;SDS011;31489;51.404;5.474;2023-09-07T14:20:37;3.03;;;2.33;;
45784;SDS011;31489;51.404;5.474;2023-09-07T14:23:02;4.60;;;2.47;;
45784;SDS011;31489;51.404;5.474;2023-09-07T14:25:29;6.95;;;2.30;;
45784;SDS011;31489;51.404;5.474;2023-09-07T14:27:55;2.50;;;2.28;;
45784;SDS011;31489;51.404;5.474;2023-09-07T14:30:21;4.63;;;2.42;;
45784;SDS011;31489;51.404;5.474;2023-09-07T14:32:46;2.80;;;2.45;;
45784;SDS011;31489;51.404;5.474;2023-09-07T14:35:14;3.70;;;2.70;;
45784;SDS011;31489;51.404;5.474;2023-09-07T14:37:40;5.88;;;2.33;;
45784;SDS011;31489;51.404;5.474;2023-09-07T14:40:06;4.60;;;2.40;;
45784;SDS011;31489;51.404;5.474;2023-09-07T14:42:33;3.92;;;2.33;;
45784;SDS011;31489;51.404;5.474;2023-09-07T14:44:59;2.20;;;2.00;;
45784;SDS011;31489;51.404;5.474;2023-09-07T14:47:28;3.63;;;2.53;;